Bonita, Arizona
Current Conditions -  °F | °C
As of 10:51 PM on Friday 28 Nov 2014 (Local Time) from KSAD Reporting Station
Clear Clear  
Wind Chill: 43°   Ceiling: Unl
Heat Index: 43°   Visibility: 10mi
Dew Point: 20°   Wind: 0mph
Humidity: 40%   Direction: NA
Pressure: 30.02"   Gusts: NA
Location:  32.5598°N, 110.08°W
Report Text: KSAD 290551Z AUTO 00000KT 10SM CLR 06/M07 A3002 RMK AO2 SLP146 T00611067 10217 20061 50000
Loading
Personal Weather Stations






























Interactive Weather Map New forecast layout! Learn more

10-Day Weather Forecast

Advertisements
Track Severe Weather on mobile